Etusivu
METAR-TAF:

METAR-TAF

Lentoasemat :

Vojens, Tanska

Leveyspiiri: 55-14N, Pituuspiiri: 009-16E, korkeus merenpinnasta: 43 m

Tämänhetkinen sää

Tämä raportti tehtiin 32 minuuttia sitten, kello 20.20 UTC
Tuuli 5 kn lännestä
Lämpötila 15°C
Kosteus 88%
Ilmanpaine 1022 hPa
Näkyvyys 10 km tai enemmän
ei pilviä alle 1500 m:ssä eikä cumulonimbus-pilviä

METAR: EKSP 262020Z 28005KT CAVOK 15/13 Q1022 RMK SKC

Aika: 22:52 (20:52 UTC)

Sääennuste

Tämä raportti tehtiin 45 minuuttia sitten, kello 20.07 UTC
Ennuste voimassa 26. päivästä klo 21 UTC - 27. päivään klo 18 UTC
Tuuli 3 kn eri suunnista
Näkyvyys 10 km tai enemmän
Muutamia pilviä 20000 ft:n korkeudessa
Tulossa
27. päivästä klo 06 UTC - 27. päivään klo 09 UTC
Tuuli 8 kn etelästä
Tulossa
27. päivästä klo 12 UTC - 27. päivään klo 15 UTC
Tuuli 8 kn idästä/kaakosta

TAF: EKSP 262007Z 2621/2718 VRB03KT 9999 FEW200 BECMG 2706/2709 18008KT BECMG 2712/2715 12008KT

Säähavainnot ja -ennusteet yli 4000 lentoasemalta (METAR- ja TAF-raportit).

Käytössä olevat sääasemat on merkitty karttaan keltaisilla ja punaisilla pisteillä.

Aseta hiiri pisteen päälle nähdäksesi sääaseman nimen.

Klikkaa sitten nähdäksesi säähavainnot ja -ennusteet.

Kartan vaihtaminen: klikkaa mustalla rastilla varustettuja vihreitä pisteitä, niin voit zoomata sisään; viivalla varustettua vihreää pistettä, niin voit zoomata ulos tai vihreitä nuolia, niin pääset viereisille kartoille.


METAR-TAF: